Terminal Aerodrome Forecast
Issued by NWS Duluth, MN

Home | Current Version | Previous Version | Text Only | Print | Product List | Glossary On
Versions: 1 2 3 4 5 6 7 8 9 10 11 12 13 14 15 16 17 18 19
000
FTUS43 KDLH 031732
TAFDLH
TAF
KDLH 031732Z 0318/0418 28020G29KT P6SM VCSH FEW040 BKN070
     FM032000 34018G28KT P6SM SCT050 BKN090
     FM032200 35016G23KT P6SM SCT090
     FM040000 36008KT P6SM SKC=

USA.gov is the U.S. government's official web portal to all federal, state and local government web resources and services.